Disclaimer

Please do not use the information listed here in-flight or in-navigation, as they are not provided to us by the airports but are provided by volunteers, so they might be outdated.

Search


Regions


Airport information page

Radio informations:
Tower (TWR) - 118.3 MHz
PREFLIGHT - 120.5 MHz
INFO - 121.25 MHz
Ground (GND) - 121.6 MHz
Automatic Terminal Information Service (ATIS) - 127.875 MHz
Approach (APP) - 118.575 MHz

Airport informations:
Latitude: 47° 35' 22.50" N
Longitude: 007° 31' 47.69" E
Elevation: 885 feet - 270 meters
Operating hours: 24 hour operations
Operating agency: Civil government, landing fees and diplomatic clearance may be required
Timezone: UTC+1(+2DT) - Last Sunday in March to last Sunday in October
Fuel: Jet A1, without icing nhibitor.

100/130 MIL Spec, low lead, aviation gasoline (BLUE)

Runway information:
08/26 - 5969 x 197 feet< - >1819 x 60 meters
16/34 - 12795 x 197 feet< - >3900 x 60 meters

Recent METARs:
LFSB 211700Z 34007KT 6000 FEW040 BKN100 01/00 Q1016 BECMG 3000 BR
LFSB 211730Z 33007KT 5000 BR FEW003 BKN086 01/00 Q1016 TEMPO 2000 BKN002
LFSB 211800Z 34007KT 4000 BR SCT003 SCT046 BKN086 01/00 Q1016 TEMPO 2000 BKN002

Airport on the map: